Time;durP1;ratioP1;P1;durP2;ratioP2;P2;SDS_P1;SDS_P2;PMS_P1;PMS_P2;Temp;Humidity;BMP_temperature;BMP_pressure;BME280_temperature;BME280_humidity;BME280_pressure;Samples;Min_cycle;Max_cycle;Signal;HPM_P1;HPM_P2
2023/12/02 00:01:33;;;;;;;;;;;;;;;4.02;84.29;98817.13;5460808;32;34906;-75
2023/12/02 00:04:35;;;;;;;;;;;;;;;4.01;88.03;98833.63;5461872;32;35034;-69
2023/12/02 00:07:37;;;;;;;;;;;;;;;3.92;88.18;98839.16;5465144;32;34956;-68
2023/12/02 00:10:40;;;;;;;;;;;;;;;4.40;86.20;98833.88;5461426;32;34372;-68
2023/12/02 00:13:42;;;;;;;;;;;;;;;4.63;86.24;98835.56;5465208;32;35305;-74
2023/12/02 00:16:44;;;;;;;;;;;;;;;4.17;85.20;98821.75;5457436;32;34255;-68
2023/12/02 00:19:46;;;;;;;;;;;;;;;5.39;82.99;98816.78;5449993;32;35624;-75
2023/12/02 00:22:48;;;;;;;;;;;;;;;4.47;83.62;98817.13;5446285;32;35854;-69
2023/12/02 00:25:50;;;;;;;;;;;;;;;4.01;85.18;98825.84;5461275;32;34336;-77
2023/12/02 00:28:53;;;;;;;;;;;;;;;4.02;86.67;98832.72;5466113;32;35948;-77
2023/12/02 00:31:55;;;;;;;;;;;;;;;3.93;88.97;98827.84;5460469;32;34657;-73
2023/12/02 00:34:57;;;;;;;;;;;;;;;4.24;86.56;98830.16;5462805;32;34805;-69
2023/12/02 00:37:59;;;;;;;;;;;;;;;4.24;86.00;98831.00;5461038;32;34327;-78
2023/12/02 00:41:01;;;;;;;;;;;;;;;4.41;84.04;98822.56;5465353;32;35923;-77
2023/12/02 00:44:03;;;;;;;;;;;;;;;4.56;85.06;98810.69;5459686;32;34765;-76
2023/12/02 00:47:06;;;;;;;;;;;;;;;4.26;83.82;98820.56;5446337;32;34678;-67
2023/12/02 00:50:08;;;;;;;;;;;;;;;4.15;86.80;98828.75;5451665;32;34898;-69
2023/12/02 00:53:10;;;;;;;;;;;;;;;4.08;87.63;98820.34;5445634;32;34225;-67
2023/12/02 00:56:12;;;;;;;;;;;;;;;3.97;89.41;98826.84;5464739;32;34617;-75
2023/12/02 00:59:15;;;;;;;;;;;;;;;4.59;85.58;98815.78;5460587;32;34366;-76
2023/12/02 01:02:17;;;;;;;;;;;;;;;4.45;87.11;98816.34;5450345;32;34462;-67
2023/12/02 01:05:19;;;;;;;;;;;;;;;4.70;85.20;98818.81;5460330;32;35166;-76
2023/12/02 01:08:21;;;;;;;;;;;;;;;4.66;85.69;98817.25;5443983;32;34961;-72
2023/12/02 01:11:23;;;;;;;;;;;;;;;5.09;83.69;98807.69;5464311;32;34958;-72
2023/12/02 01:14:25;;;;;;;;;;;;;;;5.26;80.07;98789.56;5459019;32;35000;-76
2023/12/02 01:17:27;;;;;;;;;;;;;;;5.12;82.77;98778.91;5442853;32;35040;-76
2023/12/02 01:20:30;;;;;;;;;;;;;;;5.26;81.63;98791.31;5459828;32;34964;-76
2023/12/02 01:23:32;;;;;;;;;;;;;;;4.60;85.31;98807.06;5447782;32;35273;-68
2023/12/02 01:26:34;;;;;;;;;;;;;;;4.19;85.00;98800.91;5444973;32;35351;-74
2023/12/02 01:29:36;;;;;;;;;;;;;;;4.49;85.68;98791.88;5460421;32;34305;-70
2023/12/02 01:32:38;;;;;;;;;;;;;;;4.98;85.43;98794.25;5463944;32;34769;-75
2023/12/02 01:35:40;;;;;;;;;;;;;;;4.20;86.25;98798.22;5443305;32;35377;-68
2023/12/02 01:38:43;;;;;;;;;;;;;;;4.50;85.46;98796.16;5464340;32;34843;-69
2023/12/02 01:41:45;;;;;;;;;;;;;;;4.61;85.07;98795.75;5459911;32;34275;-69
2023/12/02 01:44:47;;;;;;;;;;;;;;;4.33;86.70;98789.03;5464129;32;34662;-68
2023/12/02 01:47:49;;;;;;;;;;;;;;;3.97;89.96;98780.91;5460258;32;35002;-68
2023/12/02 01:50:51;;;;;;;;;;;;;;;4.94;86.04;98790.06;5459401;32;35038;-73
2023/12/02 01:53:54;;;;;;;;;;;;;;;4.48;85.40;98781.53;5464216;32;34739;-74
2023/12/02 01:56:56;;;;;;;;;;;;;;;4.70;85.47;98785.00;5460731;32;35681;-75
2023/12/02 01:59:59;;;;;;;;;;;;;;;4.69;84.65;98785.03;5452450;32;35466;-67
2023/12/02 02:03:01;;;;;;;;;;;;;;;4.57;86.09;98771.63;5461411;32;35070;-67
2023/12/02 02:06:03;;;;;;;;;;;;;;;4.22;87.00;98783.41;5450558;32;35200;-77
2023/12/02 02:09:05;;;;;;;;;;;;;;;4.53;86.62;98772.66;5448061;32;35251;-76
2023/12/02 02:12:07;;;;;;;;;;;;;;;4.64;87.18;98756.59;5447635;32;34934;-72
2023/12/02 02:15:09;;;;;;;;;;;;;;;4.99;85.99;98757.72;5464140;32;34685;-75
2023/12/02 02:18:12;;;;;;;;;;;;;;;5.55;82.03;98748.38;5443283;32;34349;-75
2023/12/02 02:21:16;;;;;;;;;;;;;;;4.29;86.84;98734.59;5466171;32;34870;-67
2023/12/02 02:24:18;;;;;;;;;;;;;;;5.37;84.68;98730.03;5462603;32;34212;-68
2023/12/02 02:27:20;;;;;;;;;;;;;;;5.68;83.17;98736.47;5465060;32;35095;-67
2023/12/02 02:30:24;;;;;;;;;;;;;;;6.37;77.21;98734.13;5464168;32;34540;-74
2023/12/02 02:33:26;;;;;;;;;;;;;;;5.38;83.04;98744.75;5460188;32;34643;-76
2023/12/02 02:36:28;;;;;;;;;;;;;;;4.62;84.55;98741.03;5466175;32;34718;-74
2023/12/02 02:39:31;;;;;;;;;;;;;;;4.76;85.62;98740.47;5462184;32;34708;-77
2023/12/02 02:42:33;;;;;;;;;;;;;;;3.60;91.30;98734.63;5467073;32;34704;-69
2023/12/02 02:45:35;;;;;;;;;;;;;;;5.04;86.70;98721.09;5462116;32;36381;-72
2023/12/02 02:48:37;;;;;;;;;;;;;;;4.52;85.37;98721.53;5464425;32;34998;-75
2023/12/02 02:51:40;;;;;;;;;;;;;;;5.22;84.88;98725.50;5462231;32;34529;-67
2023/12/02 02:54:42;;;;;;;;;;;;;;;4.26;87.69;98721.72;5462160;32;34883;-76
2023/12/02 02:57:45;;;;;;;;;;;;;;;4.86;89.59;98715.75;5445340;32;34900;-67
2023/12/02 03:00:47;;;;;;;;;;;;;;;5.06;83.81;98719.25;5447077;32;34968;-67
2023/12/02 03:03:49;;;;;;;;;;;;;;;5.54;85.23;98729.28;5452219;32;35609;-68
2023/12/02 03:06:52;;;;;;;;;;;;;;;4.80;86.34;98715.16;5461504;32;34413;-77
2023/12/02 03:09:54;;;;;;;;;;;;;;;5.51;83.31;98715.53;5463204;32;33693;-68
2023/12/02 03:12:56;;;;;;;;;;;;;;;4.63;88.37;98708.88;5464535;32;34502;-77
2023/12/02 03:15:58;;;;;;;;;;;;;;;5.72;84.55;98717.16;5458518;32;34950;-77
2023/12/02 03:19:01;;;;;;;;;;;;;;;5.10;85.10;98707.81;5464769;32;35117;-68
2023/12/02 03:22:03;;;;;;;;;;;;;;;5.22;85.71;98699.47;5461288;32;34421;-68
2023/12/02 03:25:06;;;;;;;;;;;;;;;5.45;84.32;98703.63;5466496;32;34581;-74
2023/12/02 03:28:08;;;;;;;;;;;;;;;5.44;84.57;98704.56;5462892;32;35636;-79
2023/12/02 03:31:10;;;;;;;;;;;;;;;5.53;81.57;98713.69;5462776;32;33992;-78
2023/12/02 03:34:13;;;;;;;;;;;;;;;5.41;84.01;98704.69;5465051;32;35445;-68
2023/12/02 03:37:15;;;;;;;;;;;;;;;4.60;85.52;98716.84;5461592;32;34295;-75
2023/12/02 03:40:17;;;;;;;;;;;;;;;4.60;86.76;98713.41;5466658;32;34378;-68
2023/12/02 03:43:19;;;;;;;;;;;;;;;4.73;86.98;98703.31;5461433;32;35099;-69
2023/12/02 03:46:22;;;;;;;;;;;;;;;5.33;85.61;98692.00;5462260;32;34310;-73
2023/12/02 03:49:24;;;;;;;;;;;;;;;5.05;84.54;98681.97;5461969;32;34720;-75
2023/12/02 03:52:26;;;;;;;;;;;;;;;4.73;87.24;98675.53;5463058;32;35810;-68
2023/12/02 03:55:29;;;;;;;;;;;;;;;5.10;88.85;98676.56;5465400;32;34872;-75
2023/12/02 03:58:31;;;;;;;;;;;;;;;5.02;85.45;98682.06;5461559;32;34849;-76
2023/12/02 04:01:33;;;;;;;;;;;;;;;5.32;85.44;98679.88;5465996;32;34650;-68
2023/12/02 04:04:35;;;;;;;;;;;;;;;5.96;83.00;98678.72;5450931;32;35363;-73
2023/12/02 04:07:38;;;;;;;;;;;;;;;5.24;85.87;98668.97;5465675;32;35008;-68
2023/12/02 04:10:40;;;;;;;;;;;;;;;5.49;84.80;98688.72;5447077;32;34931;-76
2023/12/02 04:13:42;;;;;;;;;;;;;;;4.64;85.87;98691.56;5461255;32;34315;-68
2023/12/02 04:16:44;;;;;;;;;;;;;;;4.43;88.74;98697.63;5461923;32;35103;-69
2023/12/02 04:19:47;;;;;;;;;;;;;;;4.97;87.36;98693.62;5459703;32;35351;-67
2023/12/02 04:22:49;;;;;;;;;;;;;;;4.72;87.98;98691.22;5465851;32;34465;-68
2023/12/02 04:25:51;;;;;;;;;;;;;;;5.27;84.52;98700.06;5459696;32;35168;-76
2023/12/02 04:28:53;;;;;;;;;;;;;;;3.75;94.33;98700.31;5466027;32;35424;-69
2023/12/02 04:31:55;;;;;;;;;;;;;;;5.06;89.33;98688.00;5460152;32;34590;-74
2023/12/02 04:34:57;;;;;;;;;;;;;;;4.56;90.25;98680.59;5461375;32;35059;-68
2023/12/02 04:37:59;;;;;;;;;;;;;;;4.58;90.12;98707.41;5465150;32;34914;-73
2023/12/02 04:41:02;;;;;;;;;;;;;;;4.10;93.12;98702.44;5460001;32;34381;-68
2023/12/02 04:44:05;;;;;;;;;;;;;;;4.11;93.42;98697.16;5464240;32;34977;-76
2023/12/02 04:47:07;;;;;;;;;;;;;;;4.28;91.70;98686.94;5460124;32;34779;-75
2023/12/02 04:50:09;;;;;;;;;;;;;;;4.68;91.45;98685.28;5465181;32;34226;-67
2023/12/02 04:53:11;;;;;;;;;;;;;;;4.37;90.26;98688.31;5461289;32;34377;-73
2023/12/02 04:56:13;;;;;;;;;;;;;;;5.08;88.53;98681.81;5460551;32;35410;-74
2023/12/02 04:59:16;;;;;;;;;;;;;;;4.80;87.64;98668.31;5466017;32;34673;-73
2023/12/02 05:02:20;;;;;;;;;;;;;;;5.15;88.80;98664.16;5460214;32;35383;-74
2023/12/02 05:05:22;;;;;;;;;;;;;;;5.19;86.95;98667.47;5465383;32;35496;-76
2023/12/02 05:08:24;;;;;;;;;;;;;;;4.95;88.97;98661.59;5460136;32;34323;-76
2023/12/02 05:11:27;;;;;;;;;;;;;;;5.21;85.72;98661.28;5464516;32;35747;-68
2023/12/02 05:14:29;;;;;;;;;;;;;;;4.89;88.91;98650.56;5459361;32;34655;-68
2023/12/02 05:17:32;;;;;;;;;;;;;;;4.75;86.90;98657.25;5457260;32;35067;-76
2023/12/02 05:20:34;;;;;;;;;;;;;;;5.20;87.49;98651.78;5464463;32;34852;-75
2023/12/02 05:23:37;;;;;;;;;;;;;;;5.39;85.09;98657.84;5460062;32;35430;-76
2023/12/02 05:26:39;;;;;;;;;;;;;;;4.99;85.50;98631.91;5462436;32;34594;-74
2023/12/02 05:29:41;;;;;;;;;;;;;;;5.50;84.18;98656.53;5460554;32;34794;-69
2023/12/02 05:32:43;;;;;;;;;;;;;;;5.80;84.66;98644.69;5465491;32;34863;-76
2023/12/02 05:35:45;;;;;;;;;;;;;;;5.36;85.31;98647.59;5463022;32;34574;-74
2023/12/02 05:38:47;;;;;;;;;;;;;;;5.12;85.40;98646.06;5462796;32;35021;-77
2023/12/02 05:41:50;;;;;;;;;;;;;;;5.11;86.30;98644.37;5466892;32;34575;-68
2023/12/02 05:44:52;;;;;;;;;;;;;;;5.37;86.13;98648.44;5462600;32;35307;-70
2023/12/02 05:47:54;;;;;;;;;;;;;;;5.38;84.69;98639.69;5466352;32;35559;-73
2023/12/02 05:50:57;;;;;;;;;;;;;;;5.31;84.38;98649.53;5461934;32;35364;-69
2023/12/02 05:54:00;;;;;;;;;;;;;;;5.15;84.86;98651.13;5466223;32;34904;-67
2023/12/02 05:57:02;;;;;;;;;;;;;;;4.88;86.21;98658.41;5463827;32;34668;-76
2023/12/02 06:00:06;;;;;;;;;;;;;;;4.64;87.40;98652.53;5462314;32;34623;-68
2023/12/02 06:03:08;;;;;;;;;;;;;;;4.76;87.84;98645.91;5466694;32;34948;-70
2023/12/02 06:06:11;;;;;;;;;;;;;;;4.72;88.95;98634.81;5461963;32;34609;-67
2023/12/02 06:09:13;;;;;;;;;;;;;;;4.82;89.21;98630.88;5466639;32;34794;-68
2023/12/02 06:12:15;;;;;;;;;;;;;;;5.24;86.72;98627.28;5462116;32;34414;-67
2023/12/02 06:15:18;;;;;;;;;;;;;;;5.12;87.81;98627.84;5447842;32;34540;-68
2023/12/02 06:18:20;;;;;;;;;;;;;;;5.01;87.04;98630.91;5462783;32;35296;-69
2023/12/02 06:21:22;;;;;;;;;;;;;;;4.28;90.20;98640.12;5461565;32;34355;-72
2023/12/02 06:24:25;;;;;;;;;;;;;;;5.18;86.26;98661.44;5466815;32;34687;-77
2023/12/02 06:27:27;;;;;;;;;;;;;;;4.49;90.97;98671.34;5461812;32;34459;-69
2023/12/02 06:30:29;;;;;;;;;;;;;;;4.43;91.59;98677.66;5466225;32;35328;-68
2023/12/02 06:33:31;;;;;;;;;;;;;;;4.53;89.83;98670.31;5462162;32;35363;-75
2023/12/02 06:36:34;;;;;;;;;;;;;;;5.48;86.80;98676.59;5462182;32;34819;-68
2023/12/02 06:39:36;;;;;;;;;;;;;;;5.39;86.12;98686.50;5464595;32;35352;-67
2023/12/02 06:42:38;;;;;;;;;;;;;;;4.99;89.87;98681.38;5462375;32;34773;-74
2023/12/02 06:45:40;;;;;;;;;;;;;;;5.02;85.51;98686.44;5466576;32;34854;-69
2023/12/02 06:48:42;;;;;;;;;;;;;;;5.11;86.14;98688.66;5462344;32;35006;-74
2023/12/02 06:51:45;;;;;;;;;;;;;;;5.06;87.20;98688.84;5466343;32;34837;-75
2023/12/02 06:54:47;;;;;;;;;;;;;;;4.91;87.98;98688.69;5462216;32;34689;-74
2023/12/02 06:58:09;;;;;;;;;;;;;;;4.75;87.83;98665.91;5461896;32;35564;-67
2023/12/02 07:01:21;;;;;;;;;;;;;;;5.07;87.02;98676.69;5465919;32;34547;-74
2023/12/02 07:04:23;;;;;;;;;;;;;;;5.50;87.59;98690.41;5461865;32;34881;-67
2023/12/02 07:07:25;;;;;;;;;;;;;;;5.24;86.42;98675.94;5451935;32;34325;-76
2023/12/02 07:10:27;;;;;;;;;;;;;;;5.76;83.97;98674.41;5461405;32;33202;-68
2023/12/02 07:13:30;;;;;;;;;;;;;;;5.88;83.39;98679.06;5449338;32;34880;-76
2023/12/02 07:16:32;;;;;;;;;;;;;;;5.47;82.96;98680.09;5445092;32;35585;-73
2023/12/02 07:19:34;;;;;;;;;;;;;;;5.66;84.91;98689.63;5460190;32;35106;-68
2023/12/02 07:22:36;;;;;;;;;;;;;;;4.72;86.96;98668.66;5466713;32;34833;-75
2023/12/02 07:25:38;;;;;;;;;;;;;;;5.63;85.73;98681.94;5461121;32;34412;-68
2023/12/02 07:28:40;;;;;;;;;;;;;;;6.02;82.91;98699.28;5466449;32;34451;-77
2023/12/02 07:31:43;;;;;;;;;;;;;;;5.88;84.58;98689.47;5461192;32;35076;-68
2023/12/02 07:34:46;;;;;;;;;;;;;;;5.74;83.30;98665.81;5463428;32;34348;-69
2023/12/02 07:37:49;;;;;;;;;;;;;;;5.97;81.51;98660.37;5462034;32;34902;-68
2023/12/02 07:40:51;;;;;;;;;;;;;;;5.47;85.50;98685.31;5461138;32;34834;-76
2023/12/02 07:43:53;;;;;;;;;;;;;;;6.07;82.32;98680.81;5466267;32;34301;-76
2023/12/02 07:46:55;;;;;;;;;;;;;;;5.34;84.62;98670.22;5439063;32;34348;-75
2023/12/02 07:49:57;;;;;;;;;;;;;;;5.82;85.98;98665.47;5450184;32;35223;-73
2023/12/02 07:53:00;;;;;;;;;;;;;;;5.32;86.75;98653.84;5460023;32;35187;-76
2023/12/02 07:56:03;;;;;;;;;;;;;;;5.37;84.44;98644.06;5462942;32;34448;-70
2023/12/02 07:59:05;;;;;;;;;;;;;;;5.83;86.60;98649.75;5465022;32;35284;-68
2023/12/02 08:02:07;;;;;;;;;;;;;;;6.83;81.73;98644.84;5461156;32;35146;-67
2023/12/02 08:05:10;;;;;;;;;;;;;;;5.54;81.10;98658.06;5465278;32;34684;-68
2023/12/02 08:08:15;;;;;;;;;;;;;;;6.41;80.79;98660.00;5445508;32;35703;-77
2023/12/02 08:11:17;;;;;;;;;;;;;;;5.10;86.51;98664.38;5465144;32;34634;-68
2023/12/02 08:14:19;;;;;;;;;;;;;;;5.33;87.69;98671.16;5459176;32;34695;-75
2023/12/02 08:17:22;;;;;;;;;;;;;;;5.85;84.11;98668.75;5439885;32;34789;-75
2023/12/02 08:20:24;;;;;;;;;;;;;;;5.66;83.35;98666.16;5463249;32;34927;-68
2023/12/02 08:23:27;;;;;;;;;;;;;;;5.39;83.68;98668.28;5461142;32;35555;-68
2023/12/02 08:26:29;;;;;;;;;;;;;;;5.89;83.95;98678.12;5464297;32;35294;-68
2023/12/02 08:29:31;;;;;;;;;;;;;;;6.29;82.96;98688.44;5460942;32;35057;-68
2023/12/02 08:32:33;;;;;;;;;;;;;;;4.79;85.64;98696.09;5464905;32;34280;-67
2023/12/02 08:35:35;;;;;;;;;;;;;;;5.19;87.43;98694.38;5460292;32;34485;-68
2023/12/02 08:38:37;;;;;;;;;;;;;;;4.95;87.37;98701.47;5462127;32;35080;-68
2023/12/02 08:41:40;;;;;;;;;;;;;;;5.03;86.41;98722.84;5462789;32;34893;-69
2023/12/02 08:44:42;;;;;;;;;;;;;;;5.50;87.17;98717.31;5461329;32;34940;-76
2023/12/02 08:47:44;;;;;;;;;;;;;;;5.94;84.31;98704.03;5444287;32;35092;-75
2023/12/02 08:50:46;;;;;;;;;;;;;;;6.19;83.07;98690.66;5460706;32;34996;-67
2023/12/02 08:53:48;;;;;;;;;;;;;;;6.20;83.43;98687.12;5453107;32;35113;-76
2023/12/02 08:56:50;;;;;;;;;;;;;;;6.07;82.70;98688.66;5445483;32;34328;-67
2023/12/02 08:59:53;;;;;;;;;;;;;;;7.06;80.63;98687.12;5447373;32;34897;-68
2023/12/02 09:02:55;;;;;;;;;;;;;;;5.49;84.99;98681.75;5464288;32;34721;-68
2023/12/02 09:05:57;;;;;;;;;;;;;;;5.58;86.16;98698.72;5443491;32;35100;-68
2023/12/02 09:08:59;;;;;;;;;;;;;;;5.76;83.79;98697.03;5465598;32;35763;-69
2023/12/02 09:12:02;;;;;;;;;;;;;;;5.84;86.15;98700.97;5439335;32;35176;-68
2023/12/02 09:15:08;;;;;;;;;;;;;;;5.64;82.06;98699.28;5457201;32;35763;-68
2023/12/02 09:18:11;;;;;;;;;;;;;;;5.76;84.02;98687.44;5444117;32;35077;-68
2023/12/02 09:21:20;;;;;;;;;;;;;;;5.40;86.56;98677.78;5444507;32;35220;-68
2023/12/02 09:24:34;;;;;;;;;;;;;;;5.86;83.87;98691.31;5464945;32;35650;-72
2023/12/02 09:27:45;;;;;;;;;;;;;;;6.43;82.55;98663.34;5460039;32;35477;-74
2023/12/02 09:31:09;;;;;;;;;;;;;;;7.39;77.66;98665.38;5463673;32;34184;-75
2023/12/02 09:34:41;;;;;;;;;;;;;;;6.13;81.11;98668.34;5448730;32;34449;-69
2023/12/02 09:37:56;;;;;;;;;;;;;;;6.96;77.64;98667.66;5431907;32;34651;-76
2023/12/02 09:41:18;;;;;;;;;;;;;;;6.50;80.60;98671.72;5463524;32;35502;-76
2023/12/02 09:44:27;;;;;;;;;;;;;;;7.18;79.08;98662.16;5445172;32;34332;-74
2023/12/02 09:47:29;;;;;;;;;;;;;;;7.22;76.10;98641.94;5461106;32;35411;-73
2023/12/02 09:50:37;;;;;;;;;;;;;;;7.71;75.25;98655.81;5446560;32;35386;-67
2023/12/02 09:53:49;;;;;;;;;;;;;;;7.93;74.61;98652.84;5445652;32;35178;-74
2023/12/02 09:57:03;;;;;;;;;;;;;;;6.40;80.71;98663.53;5446696;32;34341;-68
2023/12/02 10:00:12;;;;;;;;;;;;;;;6.24;80.21;98646.91;5458860;32;34351;-68
2023/12/02 10:03:18;;;;;;;;;;;;;;;6.23;82.84;98645.22;5460291;32;34868;-68
2023/12/02 10:06:23;;;;;;;;;;;;;;;5.75;87.73;98640.59;5461471;32;35653;-68
2023/12/02 10:09:53;;;;;;;;;;;;;;;6.70;81.26;98627.22;5444914;32;34700;-76
2023/12/02 10:12:55;;;;;;;;;;;;;;;6.41;80.51;98623.44;5463410;32;34145;-69
2023/12/02 10:15:58;;;;;;;;;;;;;;;6.10;84.45;98628.50;5455362;32;34661;-69
2023/12/02 10:19:00;;;;;;;;;;;;;;;6.46;81.80;98629.28;5449532;32;35811;-76
2023/12/02 10:22:03;;;;;;;;;;;;;;;6.09;84.04;98616.38;5463420;32;35444;-75
2023/12/02 10:25:06;;;;;;;;;;;;;;;6.74;82.32;98628.72;5446512;32;35274;-68
2023/12/02 10:28:13;;;;;;;;;;;;;;;6.67;81.01;98624.75;5451539;32;35012;-68
2023/12/02 10:31:25;;;;;;;;;;;;;;;6.92;79.56;98619.09;5446992;32;34289;-67
2023/12/02 10:34:31;;;;;;;;;;;;;;;6.12;84.69;98622.31;5438431;32;33896;-69
2023/12/02 10:37:37;;;;;;;;;;;;;;;5.81;82.16;98625.50;5446786;32;35240;-73
2023/12/02 10:40:39;;;;;;;;;;;;;;;7.14;79.88;98617.97;5461981;32;35081;-74
2023/12/02 10:43:42;;;;;;;;;;;;;;;7.02;79.22;98632.53;5465366;32;34770;-77
2023/12/02 10:46:44;;;;;;;;;;;;;;;6.58;83.17;98622.63;5459886;32;35137;-69
2023/12/02 10:49:46;;;;;;;;;;;;;;;6.43;80.55;98610.31;5466014;32;34339;-68
2023/12/02 10:53:01;;;;;;;;;;;;;;;6.59;79.36;98594.75;5445232;32;34381;-68
2023/12/02 10:56:11;;;;;;;;;;;;;;;6.11;86.10;98586.69;5464404;32;34955;-68
2023/12/02 10:59:14;;;;;;;;;;;;;;;5.93;86.17;98580.63;5461847;32;36115;-77
2023/12/02 11:02:16;;;;;;;;;;;;;;;6.37;82.16;98584.53;5461306;32;34863;-68
2023/12/02 11:05:22;;;;;;;;;;;;;;;5.55;87.86;98566.81;5465668;32;35819;-67
2023/12/02 11:08:42;;;;;;;;;;;;;;;6.04;84.49;98561.81;5461684;32;35256;-77
2023/12/02 11:11:44;;;;;;;;;;;;;;;5.77;85.68;98561.37;5450091;32;34844;-75
2023/12/02 11:14:47;;;;;;;;;;;;;;;5.92;86.95;98562.44;5460017;32;35149;-76
2023/12/02 11:17:55;;;;;;;;;;;;;;;6.66;82.06;98562.19;5443993;32;35579;-68
2023/12/02 11:21:03;;;;;;;;;;;;;;;6.66;83.35;98556.97;5465315;32;35137;-67
2023/12/02 11:24:25;;;;;;;;;;;;;;;6.40;80.55;98543.50;5461356;32;34826;-76
2023/12/02 11:27:33;;;;;;;;;;;;;;;6.44;81.94;98545.03;5450408;32;34499;-76
2023/12/02 11:30:54;;;;;;;;;;;;;;;6.41;82.07;98534.72;5445570;32;35087;-69
2023/12/02 11:33:59;;;;;;;;;;;;;;;6.63;83.12;98513.56;5442666;32;34700;-75
2023/12/02 11:37:12;;;;;;;;;;;;;;;6.85;78.93;98517.66;5464829;32;35453;-68
2023/12/02 11:40:24;;;;;;;;;;;;;;;7.05;81.38;98520.03;5450083;32;34848;-68
2023/12/02 11:43:29;;;;;;;;;;;;;;;6.23;82.43;98531.28;5464256;32;34510;-76
2023/12/02 11:46:33;;;;;;;;;;;;;;;6.33;83.35;98541.28;5459868;32;36308;-76
2023/12/02 11:49:35;;;;;;;;;;;;;;;7.10;80.78;98544.16;5460677;32;35319;-77
2023/12/02 11:52:50;;;;;;;;;;;;;;;6.63;81.98;98551.88;5465701;32;34919;-77
2023/12/02 11:55:57;;;;;;;;;;;;;;;7.39;78.59;98558.22;5460674;32;34886;-77
2023/12/02 11:59:16;;;;;;;;;;;;;;;6.19;82.73;98565.47;5466157;32;34985;-68
2023/12/02 12:02:38;;;;;;;;;;;;;;;6.67;82.42;98558.63;5458534;32;35054;-76
2023/12/02 12:05:53;;;;;;;;;;;;;;;6.56;79.56;98563.56;5429732;32;34674;-77
2023/12/02 12:08:55;;;;;;;;;;;;;;;6.35;82.48;98563.75;5465540;32;34859;-69
2023/12/02 12:11:58;;;;;;;;;;;;;;;6.79;81.63;98547.56;5460185;32;35555;-69
2023/12/02 12:15:00;;;;;;;;;;;;;;;7.39;79.41;98549.53;5438696;32;35664;-67
2023/12/02 12:18:04;;;;;;;;;;;;;;;7.22;77.77;98538.25;5458991;32;34062;-69
2023/12/02 12:21:06;;;;;;;;;;;;;;;6.69;79.98;98541.12;5461379;32;34698;-66
2023/12/02 12:24:09;;;;;;;;;;;;;;;6.33;84.20;98546.50;5449306;32;35388;-68
2023/12/02 12:27:11;;;;;;;;;;;;;;;6.01;84.22;98561.16;5459035;32;35013;-68
2023/12/02 12:30:13;;;;;;;;;;;;;;;6.42;84.31;98551.22;5456147;32;34903;-73
2023/12/02 12:33:22;;;;;;;;;;;;;;;7.00;80.71;98543.78;5462007;32;35847;-76
2023/12/02 12:36:28;;;;;;;;;;;;;;;6.11;84.27;98544.09;5464676;32;34862;-75
2023/12/02 12:39:30;;;;;;;;;;;;;;;6.73;83.06;98555.72;5459717;32;34628;-73
2023/12/02 12:42:32;;;;;;;;;;;;;;;7.65;77.95;98535.84;5461495;32;34557;-76
2023/12/02 12:45:35;;;;;;;;;;;;;;;6.86;81.31;98520.19;5465572;32;34808;-76
2023/12/02 12:48:37;;;;;;;;;;;;;;;7.43;78.00;98519.72;5446844;32;35494;-75
2023/12/02 12:51:39;;;;;;;;;;;;;;;6.48;81.17;98536.09;5465199;32;34745;-76
2023/12/02 12:54:52;;;;;;;;;;;;;;;5.93;84.78;98523.25;5458886;32;35659;-68
2023/12/02 12:57:58;;;;;;;;;;;;;;;5.48;87.23;98494.22;5452644;32;34747;-74
2023/12/02 13:01:00;;;;;;;;;;;;;;;6.36;83.59;98508.03;5461652;32;35223;-68
2023/12/02 13:04:04;;;;;;;;;;;;;;;5.93;83.61;98481.53;5446153;32;34515;-68
2023/12/02 13:07:10;;;;;;;;;;;;;;;6.91;82.24;98492.06;5464238;32;35126;-67
2023/12/02 13:10:13;;;;;;;;;;;;;;;5.80;85.34;98501.28;5459483;32;34529;-76
2023/12/02 13:13:16;;;;;;;;;;;;;;;6.35;84.32;98514.16;5464635;32;34965;-76
2023/12/02 13:16:19;;;;;;;;;;;;;;;7.17;80.46;98523.75;5442344;32;34215;-77
2023/12/02 13:19:21;;;;;;;;;;;;;;;6.58;83.43;98556.53;5446576;32;35029;-67
2023/12/02 13:22:24;;;;;;;;;;;;;;;5.41;87.92;98570.06;5448531;32;35443;-76
2023/12/02 13:25:27;;;;;;;;;;;;;;;5.93;86.02;98570.19;5444928;32;34564;-74
2023/12/02 13:28:32;;;;;;;;;;;;;;;5.48;89.24;98578.44;5465346;32;35577;-68
2023/12/02 13:31:37;;;;;;;;;;;;;;;5.94;87.09;98558.00;5443620;32;35189;-67
2023/12/02 13:34:39;;;;;;;;;;;;;;;6.56;83.56;98538.31;5464330;32;34333;-76
2023/12/02 13:38:04;;;;;;;;;;;;;;;6.30;82.88;98555.31;5459564;32;35292;-75
2023/12/02 13:41:26;;;;;;;;;;;;;;;6.75;79.84;98556.47;5459506;32;34289;-69
2023/12/02 13:44:30;;;;;;;;;;;;;;;5.92;82.84;98557.22;5455196;32;34648;-70
2023/12/02 13:47:41;;;;;;;;;;;;;;;6.53;81.59;98582.84;5459488;32;35197;-77
2023/12/02 13:50:59;;;;;;;;;;;;;;;6.23;80.73;98595.66;5454058;32;34521;-74
2023/12/02 13:54:13;;;;;;;;;;;;;;;5.51;84.54;98595.66;5441374;32;35530;-68
2023/12/02 13:57:24;;;;;;;;;;;;;;;6.32;80.22;98623.94;5446770;32;34262;-73
2023/12/02 14:00:30;;;;;;;;;;;;;;;5.87;79.96;98695.63;5466651;32;34750;-77
2023/12/02 14:03:39;;;;;;;;;;;;;;;6.39;79.25;98734.06;5462811;32;34522;-77
2023/12/02 14:06:59;;;;;;;;;;;;;;;5.84;79.20;98737.47;5464535;32;34345;-68
2023/12/02 14:10:03;;;;;;;;;;;;;;;5.89;80.91;98724.22;5464000;32;35004;-73
2023/12/02 14:13:10;;;;;;;;;;;;;;;5.43;82.59;98689.84;5454388;32;35371;-75
2023/12/02 14:16:24;;;;;;;;;;;;;;;5.64;83.81;98660.19;5457221;32;34511;-67
2023/12/02 14:19:27;;;;;;;;;;;;;;;5.83;81.73;98665.38;5460377;32;34739;-76
2023/12/02 14:22:55;;;;;;;;;;;;;;;5.86;80.55;98665.25;5466343;32;36692;-76
2023/12/02 14:26:16;;;;;;;;;;;;;;;5.28;82.67;98674.87;5440305;32;34611;-74
2023/12/02 14:29:37;;;;;;;;;;;;;;;6.11;80.10;98701.44;5462278;32;35468;-67
2023/12/02 14:33:01;;;;;;;;;;;;;;;5.96;79.46;98707.41;5466303;32;34885;-75
2023/12/02 14:36:08;;;;;;;;;;;;;;;6.17;78.88;98721.19;5460851;32;35115;-68
2023/12/02 14:39:23;;;;;;;;;;;;;;;5.66;79.96;98699.19;5432007;32;34511;-77
2023/12/02 14:42:33;;;;;;;;;;;;;;;5.43;80.45;98690.69;5466458;32;34833;-77
2023/12/02 14:45:36;;;;;;;;;;;;;;;5.31;80.75;98706.00;5461313;32;34749;-72
2023/12/02 14:48:38;;;;;;;;;;;;;;;5.70;77.97;98709.41;5466534;32;34237;-77
2023/12/02 14:51:44;;;;;;;;;;;;;;;5.63;80.70;98720.19;5458362;32;34683;-76
2023/12/02 14:54:46;;;;;;;;;;;;;;;6.14;78.06;98682.22;5464611;32;34243;-74
2023/12/02 14:58:08;;;;;;;;;;;;;;;6.28;76.65;98669.34;5465023;32;35219;-68
2023/12/02 15:01:12;;;;;;;;;;;;;;;6.31;73.84;98664.00;5461397;32;35180;-76
2023/12/02 15:04:17;;;;;;;;;;;;;;;6.46;74.52;98654.56;5466509;32;35209;-69
2023/12/02 15:07:20;;;;;;;;;;;;;;;5.97;76.32;98669.97;5461106;32;35069;-68
2023/12/02 15:10:22;;;;;;;;;;;;;;;6.39;74.44;98687.94;5459308;32;35042;-69
2023/12/02 15:13:41;;;;;;;;;;;;;;;6.58;73.79;98700.09;5463538;32;35025;-67
2023/12/02 15:16:43;;;;;;;;;;;;;;;5.37;77.04;98724.81;5457398;32;34366;-70
2023/12/02 15:19:46;;;;;;;;;;;;;;;5.23;77.54;98695.94;5450083;32;34476;-68
2023/12/02 15:22:48;;;;;;;;;;;;;;;5.97;75.21;98678.62;5461188;32;34677;-75
2023/12/02 15:25:51;;;;;;;;;;;;;;;5.08;74.38;98694.81;5465344;32;34274;-77
2023/12/02 15:28:53;;;;;;;;;;;;;;;4.38;76.51;98691.75;5461935;32;34753;-77
2023/12/02 15:31:55;;;;;;;;;;;;;;;4.23;78.16;98714.03;5448222;32;34765;-74
2023/12/02 15:34:58;;;;;;;;;;;;;;;4.35;75.92;98745.59;5464638;32;35434;-69
2023/12/02 15:38:00;;;;;;;;;;;;;;;4.02;77.42;98697.53;5446394;32;35038;-69
2023/12/02 15:41:03;;;;;;;;;;;;;;;4.53;77.41;98715.41;5459988;32;35005;-74
2023/12/02 15:44:05;;;;;;;;;;;;;;;4.37;77.51;98742.94;5433427;32;35043;-69
2023/12/02 15:47:07;;;;;;;;;;;;;;;4.25;77.96;98746.91;5465343;32;34890;-68
2023/12/02 15:50:09;;;;;;;;;;;;;;;4.70;77.90;98685.22;5447734;32;35390;-77
2023/12/02 15:53:11;;;;;;;;;;;;;;;5.12;75.20;98682.53;5447286;32;35237;-68
2023/12/02 15:56:14;;;;;;;;;;;;;;;5.03;74.51;98686.41;5463783;32;35168;-76
2023/12/02 15:59:18;;;;;;;;;;;;;;;5.82;72.83;98762.75;5461133;32;35043;-69
2023/12/02 16:02:21;;;;;;;;;;;;;;;4.82;75.96;98792.25;5465119;32;35223;-69
2023/12/02 16:05:24;;;;;;;;;;;;;;;4.62;77.31;98782.66;5446538;32;35201;-68
2023/12/02 16:08:26;;;;;;;;;;;;;;;4.06;78.76;98790.13;5465445;32;35943;-68
2023/12/02 16:11:33;;;;;;;;;;;;;;;3.85;77.60;98832.50;5443453;32;34716;-67
2023/12/02 16:14:35;;;;;;;;;;;;;;;3.64;78.29;98826.31;5458740;32;34378;-76